sensor_id;sensor_type;location;lat;lon;timestamp;pressure;altitude;pressure_sealevel;temperature;humidity
11682;BME280;5897;42.640;23.310;2024-03-22T00:01:44;93936.31;;;8.76;43.90
11682;BME280;5897;42.640;23.310;2024-03-22T00:04:10;93939.22;;;8.66;44.88
11682;BME280;5897;42.640;23.310;2024-03-22T00:06:37;93940.50;;;8.58;45.55
11682;BME280;5897;42.640;23.310;2024-03-22T00:09:03;93941.81;;;8.50;46.46
11682;BME280;5897;42.640;23.310;2024-03-22T00:11:30;93929.47;;;8.52;46.62
11682;BME280;5897;42.640;23.310;2024-03-22T00:13:56;93940.88;;;8.60;47.31
11682;BME280;5897;42.640;23.310;2024-03-22T00:16:22;93937.25;;;8.47;46.84
11682;BME280;5897;42.640;23.310;2024-03-22T00:18:50;93933.47;;;8.21;51.07
11682;BME280;5897;42.640;23.310;2024-03-22T00:21:16;93931.09;;;8.27;49.53
11682;BME280;5897;42.640;23.310;2024-03-22T00:23:42;93923.81;;;8.24;49.63
11682;BME280;5897;42.640;23.310;2024-03-22T00:26:09;93924.59;;;8.24;49.60
11682;BME280;5897;42.640;23.310;2024-03-22T00:28:35;93937.66;;;8.26;48.70
11682;BME280;5897;42.640;23.310;2024-03-22T00:31:01;93930.31;;;8.26;48.64
11682;BME280;5897;42.640;23.310;2024-03-22T00:33:27;93929.56;;;8.26;48.55
11682;BME280;5897;42.640;23.310;2024-03-22T00:35:55;93941.16;;;8.23;49.14
11682;BME280;5897;42.640;23.310;2024-03-22T00:38:21;93916.19;;;7.96;49.15
11682;BME280;5897;42.640;23.310;2024-03-22T00:40:47;93941.25;;;8.16;49.14
11682;BME280;5897;42.640;23.310;2024-03-22T00:43:13;93948.19;;;8.13;49.47
11682;BME280;5897;42.640;23.310;2024-03-22T00:45:40;93941.44;;;8.05;49.87
11682;BME280;5897;42.640;23.310;2024-03-22T00:48:06;93941.44;;;8.05;49.53
11682;BME280;5897;42.640;23.310;2024-03-22T00:50:33;93941.06;;;8.03;49.30
11682;BME280;5897;42.640;23.310;2024-03-22T00:53:00;93946.56;;;7.96;49.23
11682;BME280;5897;42.640;23.310;2024-03-22T00:55:28;93945.69;;;8.03;47.91
11682;BME280;5897;42.640;23.310;2024-03-22T00:57:54;93892.41;;;7.48;49.23
11682;BME280;5897;42.640;23.310;2024-03-22T01:00:21;93916.69;;;7.64;48.38
11682;BME280;5897;42.640;23.310;2024-03-22T01:02:46;93941.38;;;7.59;49.77
11682;BME280;5897;42.640;23.310;2024-03-22T01:05:13;93938.78;;;7.52;49.79
11682;BME280;5897;42.640;23.310;2024-03-22T01:07:39;93943.34;;;7.55;50.12
11682;BME280;5897;42.640;23.310;2024-03-22T01:10:08;93940.50;;;7.13;51.42
11682;BME280;5897;42.640;23.310;2024-03-22T01:12:34;93938.69;;;7.03;52.05
11682;BME280;5897;42.640;23.310;2024-03-22T01:15:00;93944.25;;;6.85;51.45
11682;BME280;5897;42.640;23.310;2024-03-22T01:17:26;93947.22;;;6.64;52.74
11682;BME280;5897;42.640;23.310;2024-03-22T01:19:53;93943.16;;;6.83;52.45
11682;BME280;5897;42.640;23.310;2024-03-22T01:22:18;93941.09;;;6.94;51.92
11682;BME280;5897;42.640;23.310;2024-03-22T01:24:45;93941.22;;;7.13;51.76
11682;BME280;5897;42.640;23.310;2024-03-22T01:27:12;93943.22;;;7.09;52.71
11682;BME280;5897;42.640;23.310;2024-03-22T01:29:39;93950.91;;;7.07;52.19
11682;BME280;5897;42.640;23.310;2024-03-22T01:32:05;93950.84;;;7.11;52.40
11682;BME280;5897;42.640;23.310;2024-03-22T01:34:34;93946.47;;;6.94;52.85
11682;BME280;5897;42.640;23.310;2024-03-22T01:37:00;93951.38;;;6.69;52.60
11682;BME280;5897;42.640;23.310;2024-03-22T01:39:28;93948.78;;;6.62;52.43
11682;BME280;5897;42.640;23.310;2024-03-22T01:41:54;93937.91;;;6.72;59.75
11682;BME280;5897;42.640;23.310;2024-03-22T01:44:27;93931.22;;;6.87;59.09
11682;BME280;5897;42.640;23.310;2024-03-22T01:46:52;93943.53;;;7.15;53.81
11682;BME280;5897;42.640;23.310;2024-03-22T01:49:19;93943.13;;;7.16;52.06
11682;BME280;5897;42.640;23.310;2024-03-22T01:51:45;93941.06;;;7.27;52.80
11682;BME280;5897;42.640;23.310;2024-03-22T01:54:12;93937.25;;;7.51;48.95
11682;BME280;5897;42.640;23.310;2024-03-22T01:56:38;93945.16;;;7.35;49.74
11682;BME280;5897;42.640;23.310;2024-03-22T01:59:05;93940.50;;;7.39;51.99
11682;BME280;5897;42.640;23.310;2024-03-22T02:01:33;93937.66;;;7.50;53.32
11682;BME280;5897;42.640;23.310;2024-03-22T02:04:01;93933.50;;;7.45;53.60
11682;BME280;5897;42.640;23.310;2024-03-22T02:06:27;93934.72;;;7.41;52.80
11682;BME280;5897;42.640;23.310;2024-03-22T02:08:54;93941.56;;;7.45;52.08
11682;BME280;5897;42.640;23.310;2024-03-22T02:11:20;93938.38;;;7.54;51.20
11682;BME280;5897;42.640;23.310;2024-03-22T02:13:47;93939.28;;;7.70;52.94
11682;BME280;5897;42.640;23.310;2024-03-22T02:16:13;93933.44;;;7.75;50.35
11682;BME280;5897;42.640;23.310;2024-03-22T02:18:41;93933.34;;;7.82;49.28
11682;BME280;5897;42.640;23.310;2024-03-22T02:21:06;93932.22;;;7.80;48.99
11682;BME280;5897;42.640;23.310;2024-03-22T02:23:35;93928.16;;;7.68;49.79
11682;BME280;5897;42.640;23.310;2024-03-22T02:26:01;93940.31;;;7.76;49.67
11682;BME280;5897;42.640;23.310;2024-03-22T02:28:28;93920.38;;;7.51;50.53
11682;BME280;5897;42.640;23.310;2024-03-22T02:30:54;93948.47;;;7.46;51.89
11682;BME280;5897;42.640;23.310;2024-03-22T02:33:21;93948.66;;;7.32;53.02
11682;BME280;5897;42.640;23.310;2024-03-22T02:35:47;93944.38;;;7.38;51.67
11682;BME280;5897;42.640;23.310;2024-03-22T02:38:14;93953.78;;;7.50;51.69
11682;BME280;5897;42.640;23.310;2024-03-22T02:40:42;93958.59;;;7.35;51.64
11682;BME280;5897;42.640;23.310;2024-03-22T02:43:09;93953.81;;;7.20;53.80
11682;BME280;5897;42.640;23.310;2024-03-22T02:45:35;93953.47;;;7.18;53.50
11682;BME280;5897;42.640;23.310;2024-03-22T02:48:02;93950.72;;;7.21;53.66
11682;BME280;5897;42.640;23.310;2024-03-22T02:50:27;93950.59;;;7.02;55.00
11682;BME280;5897;42.640;23.310;2024-03-22T02:52:54;93959.63;;;6.85;55.73
11682;BME280;5897;42.640;23.310;2024-03-22T02:55:20;93954.94;;;6.92;55.66
11682;BME280;5897;42.640;23.310;2024-03-22T02:57:49;93959.75;;;6.74;55.79
11682;BME280;5897;42.640;23.310;2024-03-22T03:00:15;93979.59;;;6.84;56.04
11682;BME280;5897;42.640;23.310;2024-03-22T03:02:43;93966.94;;;6.81;57.04
11682;BME280;5897;42.640;23.310;2024-03-22T03:05:09;93966.78;;;6.61;57.77
11682;BME280;5897;42.640;23.310;2024-03-22T03:07:36;93977.69;;;6.47;58.81
11682;BME280;5897;42.640;23.310;2024-03-22T03:10:02;93976.16;;;6.46;58.88
11682;BME280;5897;42.640;23.310;2024-03-22T03:12:28;93977.69;;;6.47;59.02
11682;BME280;5897;42.640;23.310;2024-03-22T03:14:55;93979.66;;;6.40;59.67
11682;BME280;5897;42.640;23.310;2024-03-22T03:17:22;93973.84;;;6.48;60.03
11682;BME280;5897;42.640;23.310;2024-03-22T03:19:48;93977.28;;;6.45;60.02
11682;BME280;5897;42.640;23.310;2024-03-22T03:22:15;93978.41;;;6.51;62.55
11682;BME280;5897;42.640;23.310;2024-03-22T03:24:41;93983.78;;;6.51;62.72
11682;BME280;5897;42.640;23.310;2024-03-22T03:27:07;93987.63;;;6.47;63.58
11682;BME280;5897;42.640;23.310;2024-03-22T03:29:33;93990.59;;;6.59;61.79
11682;BME280;5897;42.640;23.310;2024-03-22T03:32:01;93992.00;;;6.71;60.63
11682;BME280;5897;42.640;23.310;2024-03-22T03:34:27;93989.72;;;6.69;60.60
11682;BME280;5897;42.640;23.310;2024-03-22T03:36:53;93992.22;;;6.50;61.68
11682;BME280;5897;42.640;23.310;2024-03-22T03:39:19;93990.34;;;6.43;63.95
11682;BME280;5897;42.640;23.310;2024-03-22T03:41:46;93990.72;;;6.45;63.11
11682;BME280;5897;42.640;23.310;2024-03-22T03:44:11;93988.41;;;6.47;62.03
11682;BME280;5897;42.640;23.310;2024-03-22T03:46:38;93988.31;;;6.17;62.36
11682;BME280;5897;42.640;23.310;2024-03-22T03:49:05;93990.72;;;6.05;62.84
11682;BME280;5897;42.640;23.310;2024-03-22T03:51:32;93997.16;;;6.11;63.29
11682;BME280;5897;42.640;23.310;2024-03-22T03:53:57;93999.34;;;6.26;62.65
11682;BME280;5897;42.640;23.310;2024-03-22T03:56:24;94005.50;;;6.23;63.01
11682;BME280;5897;42.640;23.310;2024-03-22T03:58:50;93989.09;;;6.14;62.57
11682;BME280;5897;42.640;23.310;2024-03-22T04:01:16;94000.28;;;6.06;63.53
11682;BME280;5897;42.640;23.310;2024-03-22T04:03:43;94006.34;;;6.13;62.69
11682;BME280;5897;42.640;23.310;2024-03-22T04:06:11;94006.44;;;5.99;62.85
11682;BME280;5897;42.640;23.310;2024-03-22T04:08:37;94008.44;;;5.92;63.55
11682;BME280;5897;42.640;23.310;2024-03-22T04:11:04;94019.97;;;5.85;64.09
11682;BME280;5897;42.640;23.310;2024-03-22T04:13:30;94010.44;;;5.74;64.00
11682;BME280;5897;42.640;23.310;2024-03-22T04:15:58;94021.75;;;6.02;64.13
11682;BME280;5897;42.640;23.310;2024-03-22T04:18:24;94016.47;;;5.95;63.98
11682;BME280;5897;42.640;23.310;2024-03-22T04:20:55;94021.50;;;5.79;64.23
11682;BME280;5897;42.640;23.310;2024-03-22T04:23:23;94002.00;;;5.75;64.57
11682;BME280;5897;42.640;23.310;2024-03-22T04:25:54;94019.16;;;5.92;64.17
11682;BME280;5897;42.640;23.310;2024-03-22T04:28:20;94024.59;;;5.81;64.49
11682;BME280;5897;42.640;23.310;2024-03-22T04:30:55;94022.81;;;5.54;65.38
11682;BME280;5897;42.640;23.310;2024-03-22T04:33:21;94028.16;;;5.57;65.63
11682;BME280;5897;42.640;23.310;2024-03-22T04:35:47;94027.97;;;5.24;67.34
11682;BME280;5897;42.640;23.310;2024-03-22T04:38:13;94011.84;;;5.31;66.63
11682;BME280;5897;42.640;23.310;2024-03-22T04:40:42;94028.97;;;5.47;66.72
11682;BME280;5897;42.640;23.310;2024-03-22T04:43:08;94032.75;;;5.57;66.23
11682;BME280;5897;42.640;23.310;2024-03-22T04:45:35;94032.75;;;5.60;65.96
11682;BME280;5897;42.640;23.310;2024-03-22T04:48:04;94044.94;;;5.68;65.81
11682;BME280;5897;42.640;23.310;2024-03-22T04:50:30;94021.31;;;5.49;65.94
11682;BME280;5897;42.640;23.310;2024-03-22T04:52:57;94027.06;;;5.48;65.83
11682;BME280;5897;42.640;23.310;2024-03-22T04:55:22;94054.84;;;5.71;65.74
11682;BME280;5897;42.640;23.310;2024-03-22T04:57:51;94047.19;;;5.80;65.75
11682;BME280;5897;42.640;23.310;2024-03-22T05:00:17;94052.53;;;5.77;65.83
11682;BME280;5897;42.640;23.310;2024-03-22T05:02:44;94049.47;;;5.82;65.54
11682;BME280;5897;42.640;23.310;2024-03-22T05:05:11;94039.84;;;5.91;65.20
11682;BME280;5897;42.640;23.310;2024-03-22T05:07:38;94023.00;;;5.87;64.91
11682;BME280;5897;42.640;23.310;2024-03-22T05:10:04;94047.31;;;6.14;64.35
11682;BME280;5897;42.640;23.310;2024-03-22T05:12:30;94054.50;;;6.27;63.95
11682;BME280;5897;42.640;23.310;2024-03-22T05:14:57;94053.28;;;6.39;63.49
11682;BME280;5897;42.640;23.310;2024-03-22T05:17:24;94055.06;;;6.52;63.99
11682;BME280;5897;42.640;23.310;2024-03-22T05:19:50;94064.19;;;6.62;64.43
11682;BME280;5897;42.640;23.310;2024-03-22T05:22:17;94062.59;;;6.68;63.83
11682;BME280;5897;42.640;23.310;2024-03-22T05:24:45;94068.25;;;6.80;63.84
11682;BME280;5897;42.640;23.310;2024-03-22T05:27:12;94068.59;;;6.82;63.41
11682;BME280;5897;42.640;23.310;2024-03-22T05:29:38;94066.22;;;6.91;63.42
11682;BME280;5897;42.640;23.310;2024-03-22T05:32:06;94071.47;;;7.02;63.81
11682;BME280;5897;42.640;23.310;2024-03-22T05:34:32;94069.81;;;7.11;63.68
11682;BME280;5897;42.640;23.310;2024-03-22T05:36:59;94069.69;;;7.22;63.49
11682;BME280;5897;42.640;23.310;2024-03-22T05:39:24;94068.88;;;7.28;63.54
11682;BME280;5897;42.640;23.310;2024-03-22T05:41:51;94076.41;;;7.40;63.17
11682;BME280;5897;42.640;23.310;2024-03-22T05:44:16;94076.31;;;7.47;63.29
11682;BME280;5897;42.640;23.310;2024-03-22T05:46:43;94084.66;;;7.56;62.66
11682;BME280;5897;42.640;23.310;2024-03-22T05:49:10;94073.06;;;7.63;62.30
11682;BME280;5897;42.640;23.310;2024-03-22T05:51:37;94085.28;;;7.67;62.23
11682;BME280;5897;42.640;23.310;2024-03-22T05:54:03;94084.41;;;7.77;62.04
11682;BME280;5897;42.640;23.310;2024-03-22T05:56:30;94087.34;;;7.86;61.28
11682;BME280;5897;42.640;23.310;2024-03-22T05:58:55;94087.22;;;7.93;60.17
11682;BME280;5897;42.640;23.310;2024-03-22T06:01:22;94103.28;;;8.00;59.99
11682;BME280;5897;42.640;23.310;2024-03-22T06:03:48;94094.66;;;8.12;59.18
11682;BME280;5897;42.640;23.310;2024-03-22T06:06:16;94091.78;;;8.26;57.84
11682;BME280;5897;42.640;23.310;2024-03-22T06:08:41;94080.69;;;8.24;57.82
11682;BME280;5897;42.640;23.310;2024-03-22T06:11:09;94085.69;;;8.49;57.39
11682;BME280;5897;42.640;23.310;2024-03-22T06:13:34;94088.22;;;8.59;56.58
11682;BME280;5897;42.640;23.310;2024-03-22T06:16:02;94091.31;;;8.58;55.43
11682;BME280;5897;42.640;23.310;2024-03-22T06:18:27;94093.31;;;8.77;54.64
11682;BME280;5897;42.640;23.310;2024-03-22T06:20:54;94095.00;;;8.90;54.27
11682;BME280;5897;42.640;23.310;2024-03-22T06:23:22;94082.16;;;8.98;54.02
11682;BME280;5897;42.640;23.310;2024-03-22T06:25:51;94093.34;;;9.19;53.10
11682;BME280;5897;42.640;23.310;2024-03-22T06:28:18;94089.56;;;9.36;57.87
11682;BME280;5897;42.640;23.310;2024-03-22T06:30:43;94089.25;;;9.89;70.89
11682;BME280;5897;42.640;23.310;2024-03-22T06:33:10;94076.97;;;10.56;82.09
11682;BME280;5897;42.640;23.310;2024-03-22T06:35:36;94090.28;;;11.11;77.12
11682;BME280;5897;42.640;23.310;2024-03-22T06:38:03;94090.97;;;11.59;71.38
11682;BME280;5897;42.640;23.310;2024-03-22T06:40:31;94080.22;;;11.97;68.16
11682;BME280;5897;42.640;23.310;2024-03-22T06:42:57;94102.78;;;12.43;58.97
11682;BME280;5897;42.640;23.310;2024-03-22T06:45:23;94105.63;;;12.52;44.94
11682;BME280;5897;42.640;23.310;2024-03-22T06:47:50;94102.47;;;12.29;42.34
11682;BME280;5897;42.640;23.310;2024-03-22T06:50:16;94110.66;;;12.13;42.33
11682;BME280;5897;42.640;23.310;2024-03-22T06:52:44;94112.28;;;12.10;42.54
11682;BME280;5897;42.640;23.310;2024-03-22T06:55:10;94109.75;;;11.79;41.42
11682;BME280;5897;42.640;23.310;2024-03-22T06:57:38;94114.91;;;11.73;41.05
11682;BME280;5897;42.640;23.310;2024-03-22T07:00:08;94115.38;;;11.84;42.88
11682;BME280;5897;42.640;23.310;2024-03-22T07:02:36;94111.25;;;11.80;42.71
11682;BME280;5897;42.640;23.310;2024-03-22T07:05:02;94122.66;;;11.87;42.15
11682;BME280;5897;42.640;23.310;2024-03-22T07:07:29;94089.69;;;11.48;43.34
11682;BME280;5897;42.640;23.310;2024-03-22T07:09:56;94124.03;;;11.79;42.67
11682;BME280;5897;42.640;23.310;2024-03-22T07:12:23;94129.31;;;11.70;42.63
11682;BME280;5897;42.640;23.310;2024-03-22T07:14:50;94118.84;;;11.85;42.55
11682;BME280;5897;42.640;23.310;2024-03-22T07:17:16;94123.03;;;11.73;42.40
11682;BME280;5897;42.640;23.310;2024-03-22T07:19:42;94128.06;;;11.87;42.39
11682;BME280;5897;42.640;23.310;2024-03-22T07:22:09;94082.44;;;11.73;41.87
11682;BME280;5897;42.640;23.310;2024-03-22T07:24:34;94128.78;;;12.16;41.49
11682;BME280;5897;42.640;23.310;2024-03-22T07:27:01;94119.31;;;12.08;43.14
11682;BME280;5897;42.640;23.310;2024-03-22T07:29:27;94110.31;;;11.98;42.55
11682;BME280;5897;42.640;23.310;2024-03-22T07:31:55;94103.75;;;12.12;41.11
11682;BME280;5897;42.640;23.310;2024-03-22T07:34:20;94124.13;;;12.29;41.31
11682;BME280;5897;42.640;23.310;2024-03-22T07:36:47;94108.63;;;12.42;40.86
11682;BME280;5897;42.640;23.310;2024-03-22T07:39:13;94126.88;;;12.66;40.22
11682;BME280;5897;42.640;23.310;2024-03-22T07:41:40;94130.66;;;12.81;39.48
11682;BME280;5897;42.640;23.310;2024-03-22T07:44:05;94112.34;;;12.73;39.46
11682;BME280;5897;42.640;23.310;2024-03-22T07:46:32;94125.66;;;12.92;38.60
11682;BME280;5897;42.640;23.310;2024-03-22T07:48:59;94128.47;;;13.14;39.16
11682;BME280;5897;42.640;23.310;2024-03-22T07:51:27;94131.84;;;13.05;38.45
11682;BME280;5897;42.640;23.310;2024-03-22T07:53:53;94129.25;;;13.14;39.01
11682;BME280;5897;42.640;23.310;2024-03-22T07:56:20;94120.34;;;13.14;40.04
11682;BME280;5897;42.640;23.310;2024-03-22T07:58:46;94111.34;;;13.17;38.84
11682;BME280;5897;42.640;23.310;2024-03-22T08:01:13;94128.75;;;13.41;38.71
11682;BME280;5897;42.640;23.310;2024-03-22T08:03:39;94130.44;;;13.47;38.62
11682;BME280;5897;42.640;23.310;2024-03-22T08:06:07;94130.75;;;13.62;38.58
11682;BME280;5897;42.640;23.310;2024-03-22T08:08:32;94134.66;;;13.82;37.78
11682;BME280;5897;42.640;23.310;2024-03-22T08:10:59;94132.50;;;13.77;38.10
11682;BME280;5897;42.640;23.310;2024-03-22T08:13:25;94133.03;;;13.85;37.83
11682;BME280;5897;42.640;23.310;2024-03-22T08:15:51;94130.63;;;13.87;37.89
11682;BME280;5897;42.640;23.310;2024-03-22T08:18:17;94132.25;;;14.06;37.56
11682;BME280;5897;42.640;23.310;2024-03-22T08:20:44;94123.75;;;14.16;37.30
11682;BME280;5897;42.640;23.310;2024-03-22T08:23:11;94109.47;;;14.25;36.13
11682;BME280;5897;42.640;23.310;2024-03-22T08:25:38;94119.16;;;14.35;37.11
11682;BME280;5897;42.640;23.310;2024-03-22T08:28:04;94119.59;;;14.55;36.07
11682;BME280;5897;42.640;23.310;2024-03-22T08:30:31;94123.88;;;14.74;35.97
11682;BME280;5897;42.640;23.310;2024-03-22T08:32:56;94105.19;;;14.85;35.42
11682;BME280;5897;42.640;23.310;2024-03-22T08:35:23;94118.50;;;14.83;35.58
11682;BME280;5897;42.640;23.310;2024-03-22T08:37:49;94121.50;;;14.85;35.49
11682;BME280;5897;42.640;23.310;2024-03-22T08:40:17;94118.56;;;15.01;34.44
11682;BME280;5897;42.640;23.310;2024-03-22T08:42:44;94105.69;;;14.92;33.34
11682;BME280;5897;42.640;23.310;2024-03-22T08:45:10;94121.22;;;14.92;34.18
11682;BME280;5897;42.640;23.310;2024-03-22T08:47:36;94122.78;;;14.93;34.57
11682;BME280;5897;42.640;23.310;2024-03-22T08:50:03;94128.13;;;15.23;33.00
11682;BME280;5897;42.640;23.310;2024-03-22T08:52:30;94128.97;;;15.51;31.96
11682;BME280;5897;42.640;23.310;2024-03-22T08:54:57;94112.91;;;15.44;31.96
11682;BME280;5897;42.640;23.310;2024-03-22T08:57:24;94124.56;;;15.44;32.98
11682;BME280;5897;42.640;23.310;2024-03-22T08:59:51;94121.72;;;15.57;32.62
11682;BME280;5897;42.640;23.310;2024-03-22T09:02:18;94126.09;;;15.72;31.90
11682;BME280;5897;42.640;23.310;2024-03-22T09:04:43;94114.44;;;15.81;31.60
11682;BME280;5897;42.640;23.310;2024-03-22T09:07:10;94121.41;;;15.91;31.47
11682;BME280;5897;42.640;23.310;2024-03-22T09:09:36;94116.88;;;15.79;31.19
11682;BME280;5897;42.640;23.310;2024-03-22T09:12:03;94110.81;;;15.75;30.82
11682;BME280;5897;42.640;23.310;2024-03-22T09:14:30;94115.50;;;15.92;32.01
11682;BME280;5897;42.640;23.310;2024-03-22T09:16:57;94111.41;;;15.61;31.61
11682;BME280;5897;42.640;23.310;2024-03-22T09:19:23;94111.09;;;16.04;32.39
11682;BME280;5897;42.640;23.310;2024-03-22T09:21:50;94103.34;;;16.29;32.17
11682;BME280;5897;42.640;23.310;2024-03-22T09:24:16;94106.84;;;16.71;31.42
11682;BME280;5897;42.640;23.310;2024-03-22T09:26:43;94082.66;;;16.64;30.19
11682;BME280;5897;42.640;23.310;2024-03-22T09:29:08;94110.28;;;16.90;29.40
11682;BME280;5897;42.640;23.310;2024-03-22T09:31:36;94100.59;;;16.80;30.16
11682;BME280;5897;42.640;23.310;2024-03-22T09:34:02;94090.25;;;16.93;29.03
11682;BME280;5897;42.640;23.310;2024-03-22T09:36:29;94097.66;;;17.25;28.18
11682;BME280;5897;42.640;23.310;2024-03-22T09:38:59;94068.84;;;17.24;28.23
11682;BME280;5897;42.640;23.310;2024-03-22T09:41:26;94101.75;;;16.97;29.28
11682;BME280;5897;42.640;23.310;2024-03-22T09:43:52;94065.28;;;17.09;28.96
11682;BME280;5897;42.640;23.310;2024-03-22T09:46:19;94082.34;;;17.51;29.01
11682;BME280;5897;42.640;23.310;2024-03-22T09:48:48;94043.06;;;17.48;28.33
11682;BME280;5897;42.640;23.310;2024-03-22T09:51:16;94081.94;;;17.67;26.96
11682;BME280;5897;42.640;23.310;2024-03-22T09:53:44;94091.78;;;18.02;27.17
11682;BME280;5897;42.640;23.310;2024-03-22T09:56:12;94079.44;;;17.92;27.57
11682;BME280;5897;42.640;23.310;2024-03-22T09:58:40;94088.06;;;17.76;27.04
11682;BME280;5897;42.640;23.310;2024-03-22T10:01:07;94087.16;;;17.94;27.57
11682;BME280;5897;42.640;23.310;2024-03-22T10:03:33;94074.91;;;18.18;28.19
11682;BME280;5897;42.640;23.310;2024-03-22T10:06:01;94071.56;;;18.38;27.89
11682;BME280;5897;42.640;23.310;2024-03-22T10:08:27;94078.81;;;18.70;26.51
11682;BME280;5897;42.640;23.310;2024-03-22T10:10:53;94068.72;;;18.61;26.54
11682;BME280;5897;42.640;23.310;2024-03-22T10:13:19;94075.31;;;18.26;27.30
11682;BME280;5897;42.640;23.310;2024-03-22T10:15:46;94074.72;;;17.93;27.77
11682;BME280;5897;42.640;23.310;2024-03-22T10:18:11;94079.63;;;17.51;28.35
11682;BME280;5897;42.640;23.310;2024-03-22T10:20:40;94079.44;;;17.54;27.95
11682;BME280;5897;42.640;23.310;2024-03-22T10:23:08;94074.84;;;17.60;28.31
11682;BME280;5897;42.640;23.310;2024-03-22T10:25:34;94059.72;;;17.50;28.35
11682;BME280;5897;42.640;23.310;2024-03-22T10:28:01;94052.28;;;17.89;27.49
11682;BME280;5897;42.640;23.310;2024-03-22T10:30:28;94068.22;;;18.19;27.46
11682;BME280;5897;42.640;23.310;2024-03-22T10:32:54;94055.44;;;18.40;29.44
11682;BME280;5897;42.640;23.310;2024-03-22T10:35:21;94060.81;;;18.49;28.72
11682;BME280;5897;42.640;23.310;2024-03-22T10:37:49;94072.75;;;18.80;27.38
11682;BME280;5897;42.640;23.310;2024-03-22T10:40:19;94041.53;;;18.72;27.55
11682;BME280;5897;42.640;23.310;2024-03-22T10:42:45;94052.31;;;18.47;26.85
11682;BME280;5897;42.640;23.310;2024-03-22T10:45:12;94048.28;;;17.37;27.67
11682;BME280;5897;42.640;23.310;2024-03-22T10:47:38;94046.59;;;16.60;28.64
11682;BME280;5897;42.640;23.310;2024-03-22T10:50:06;94032.59;;;17.00;28.76
11682;BME280;5897;42.640;23.310;2024-03-22T10:52:36;94039.03;;;17.11;28.34
11682;BME280;5897;42.640;23.310;2024-03-22T10:55:07;94031.59;;;17.59;28.38
11682;BME280;5897;42.640;23.310;2024-03-22T10:57:36;94028.63;;;18.29;27.06
11682;BME280;5897;42.640;23.310;2024-03-22T11:00:04;94031.47;;;18.49;27.23
11682;BME280;5897;42.640;23.310;2024-03-22T11:02:35;94012.16;;;18.73;26.47
11682;BME280;5897;42.640;23.310;2024-03-22T11:05:03;94028.91;;;18.95;26.63
11682;BME280;5897;42.640;23.310;2024-03-22T11:07:29;94026.16;;;18.95;26.10
11682;BME280;5897;42.640;23.310;2024-03-22T11:09:56;94027.38;;;18.74;25.77
11682;BME280;5897;42.640;23.310;2024-03-22T11:12:24;94023.72;;;18.97;25.89
11682;BME280;5897;42.640;23.310;2024-03-22T11:14:53;94023.69;;;19.31;25.61
11682;BME280;5897;42.640;23.310;2024-03-22T11:17:19;94021.22;;;19.53;24.98
11682;BME280;5897;42.640;23.310;2024-03-22T11:19:50;94020.50;;;20.04;24.55
11682;BME280;5897;42.640;23.310;2024-03-22T11:22:16;94004.72;;;20.19;23.42
11682;BME280;5897;42.640;23.310;2024-03-22T11:24:42;94012.25;;;20.24;24.21
11682;BME280;5897;42.640;23.310;2024-03-22T11:27:09;94013.22;;;20.21;24.46
11682;BME280;5897;42.640;23.310;2024-03-22T11:29:36;94015.78;;;20.61;23.77
11682;BME280;5897;42.640;23.310;2024-03-22T11:32:06;94015.50;;;20.53;23.23
11682;BME280;5897;42.640;23.310;2024-03-22T11:34:34;93995.53;;;20.53;23.54
11682;BME280;5897;42.640;23.310;2024-03-22T11:37:00;93995.44;;;20.42;23.29
11682;BME280;5897;42.640;23.310;2024-03-22T11:39:27;94010.22;;;20.19;23.50
11682;BME280;5897;42.640;23.310;2024-03-22T11:41:53;93988.03;;;19.97;23.76
11682;BME280;5897;42.640;23.310;2024-03-22T11:44:21;93993.72;;;20.44;23.52
11682;BME280;5897;42.640;23.310;2024-03-22T11:46:48;93996.88;;;20.68;23.35
11682;BME280;5897;42.640;23.310;2024-03-22T11:49:17;93991.16;;;21.03;22.74
11682;BME280;5897;42.640;23.310;2024-03-22T11:51:42;93977.78;;;21.27;22.58
11682;BME280;5897;42.640;23.310;2024-03-22T11:54:09;93978.19;;;21.73;21.96
11682;BME280;5897;42.640;23.310;2024-03-22T11:56:35;93955.44;;;21.72;22.10
11682;BME280;5897;42.640;23.310;2024-03-22T11:59:02;93927.22;;;21.72;21.83
11682;BME280;5897;42.640;23.310;2024-03-22T12:01:29;93968.00;;;22.06;21.41
11682;BME280;5897;42.640;23.310;2024-03-22T12:03:55;93961.25;;;21.91;22.14
11682;BME280;5897;42.640;23.310;2024-03-22T12:06:22;93957.88;;;21.54;22.11
11682;BME280;5897;42.640;23.310;2024-03-22T12:08:49;93957.38;;;21.50;22.85
11682;BME280;5897;42.640;23.310;2024-03-22T12:11:16;93956.59;;;21.44;23.11
11682;BME280;5897;42.640;23.310;2024-03-22T12:13:43;93936.63;;;21.54;22.87
11682;BME280;5897;42.640;23.310;2024-03-22T12:16:09;93955.75;;;22.02;22.31
11682;BME280;5897;42.640;23.310;2024-03-22T12:18:35;93943.97;;;21.79;22.52
11682;BME280;5897;42.640;23.310;2024-03-22T12:21:01;93943.25;;;22.12;21.19
11682;BME280;5897;42.640;23.310;2024-03-22T12:23:29;93949.28;;;22.49;20.52
11682;BME280;5897;42.640;23.310;2024-03-22T12:25:55;93940.53;;;22.45;20.74
11682;BME280;5897;42.640;23.310;2024-03-22T12:28:22;93937.25;;;22.63;21.28
11682;BME280;5897;42.640;23.310;2024-03-22T12:30:48;93928.97;;;22.85;21.17
11682;BME280;5897;42.640;23.310;2024-03-22T12:33:15;93934.94;;;22.94;21.16
11682;BME280;5897;42.640;23.310;2024-03-22T12:35:41;93934.72;;;22.76;21.02
11682;BME280;5897;42.640;23.310;2024-03-22T12:38:08;93931.75;;;22.19;20.93
11682;BME280;5897;42.640;23.310;2024-03-22T12:40:37;93931.34;;;21.40;21.62
11682;BME280;5897;42.640;23.310;2024-03-22T12:43:04;93916.53;;;21.21;21.70
11682;BME280;5897;42.640;23.310;2024-03-22T12:45:30;93927.13;;;21.50;21.55
11682;BME280;5897;42.640;23.310;2024-03-22T12:47:57;93910.75;;;22.05;21.38
11682;BME280;5897;42.640;23.310;2024-03-22T12:50:24;93925.47;;;21.85;21.98
11682;BME280;5897;42.640;23.310;2024-03-22T12:52:50;93924.50;;;22.54;20.75
11682;BME280;5897;42.640;23.310;2024-03-22T12:55:16;93919.16;;;22.95;20.26
11682;BME280;5897;42.640;23.310;2024-03-22T12:57:44;93914.38;;;23.01;20.59
11682;BME280;5897;42.640;23.310;2024-03-22T13:00:11;93914.72;;;22.64;19.89
11682;BME280;5897;42.640;23.310;2024-03-22T13:02:43;93915.00;;;22.28;20.82